Time;durP1;ratioP1;P1;durP2;ratioP2;P2;SDS_P1;SDS_P2;PMS_P1;PMS_P2;Temp;Humidity;BMP_temperature;BMP_pressure;BME280_temperature;BME280_humidity;BME280_pressure;Samples;Min_cycle;Max_cycle;Signal;HPM_P1;HPM_P2
2023/05/23 00:01:37;;;;;;;11.30;5.10;;;;;;;;;;5033160;28;20033;-74
2023/05/23 00:04:03;;;;;;;11.90;5.53;;;;;;;;;;5033145;28;20400;-74
2023/05/23 00:06:29;;;;;;;8.95;5.00;;;;;;;;;;5033580;28;20037;-74
2023/05/23 00:08:55;;;;;;;6.78;5.00;;;;;;;;;;5051419;28;20028;-74
2023/05/23 00:11:25;;;;;;;8.57;5.55;;;;;;;;;;5033144;28;20135;-74
2023/05/23 00:13:52;;;;;;;14.45;5.38;;;;;;;;;;5051267;28;20104;-73
2023/05/23 00:16:17;;;;;;;8.82;4.57;;;;;;;;;;5032663;28;20029;-74
2023/05/23 00:18:44;;;;;;;7.50;4.60;;;;;;;;;;5016133;28;20110;-75
2023/05/23 00:21:12;;;;;;;7.28;4.72;;;;;;;;;;5032222;28;20044;-74
2023/05/23 00:23:41;;;;;;;8.02;5.15;;;;;;;;;;5050345;28;20020;-74
2023/05/23 00:26:08;;;;;;;9.50;4.72;;;;;;;;;;5032327;28;20028;-74
2023/05/23 00:28:33;;;;;;;6.47;4.45;;;;;;;;;;5050596;28;20708;-75
2023/05/23 00:30:59;;;;;;;11.70;4.65;;;;;;;;;;5032552;28;20044;-74
2023/05/23 00:33:24;;;;;;;6.20;5.00;;;;;;;;;;5050669;28;20579;-74
2023/05/23 00:35:50;;;;;;;6.40;4.60;;;;;;;;;;5051351;28;20452;-74
2023/05/23 00:38:16;;;;;;;8.60;5.15;;;;;;;;;;5050566;28;20462;-74
2023/05/23 00:40:41;;;;;;;10.02;5.20;;;;;;;;;;5032266;28;20025;-73
2023/05/23 00:43:07;;;;;;;9.32;5.00;;;;;;;;;;5032446;28;20396;-74
2023/05/23 00:45:33;;;;;;;7.47;5.60;;;;;;;;;;5050502;28;20155;-74
2023/05/23 00:47:59;;;;;;;6.75;4.50;;;;;;;;;;5050712;28;20079;-72
2023/05/23 00:50:28;;;;;;;7.90;4.82;;;;;;;;;;5050113;28;20683;-73
2023/05/23 00:52:54;;;;;;;6.20;4.50;;;;;;;;;;5032221;28;20029;-74
2023/05/23 00:55:20;;;;;;;7.93;4.90;;;;;;;;;;5049867;28;20028;-73
2023/05/23 00:57:46;;;;;;;9.63;5.38;;;;;;;;;;5050106;28;20484;-73
2023/05/23 01:00:12;;;;;;;8.27;5.07;;;;;;;;;;5049567;28;20032;-73
2023/05/23 01:02:44;;;;;;;12.05;5.40;;;;;;;;;;5031939;28;20029;-73
2023/05/23 01:05:16;;;;;;;6.85;4.82;;;;;;;;;;5031766;28;20115;-73
2023/05/23 01:07:45;;;;;;;12.10;5.10;;;;;;;;;;5049874;28;20021;-73
2023/05/23 01:10:12;;;;;;;10.02;5.25;;;;;;;;;;5050415;28;20429;-73
2023/05/23 01:12:56;;;;;;;8.63;5.10;;;;;;;;;;5051963;28;20098;-73
2023/05/23 01:15:31;;;;;;;7.20;5.13;;;;;;;;;;5034340;28;20032;-73
2023/05/23 01:18:13;;;;;;;9.23;5.15;;;;;;;;;;5034266;28;20017;-72
2023/05/23 01:20:49;;;;;;;8.25;5.20;;;;;;;;;;5034077;28;20056;-72
2023/05/23 01:23:28;;;;;;;6.88;4.53;;;;;;;;;;5032241;28;20526;-72
2023/05/23 01:26:18;;;;;;;14.48;5.38;;;;;;;;;;5049637;28;20082;-73
2023/05/23 01:28:51;;;;;;;8.85;4.85;;;;;;;;;;5031629;28;20079;-72
2023/05/23 01:31:17;;;;;;;12.65;5.68;;;;;;;;;;5049785;28;20031;-72
2023/05/23 01:33:44;;;;;;;9.00;5.10;;;;;;;;;;5031866;28;20021;-72
2023/05/23 01:36:12;;;;;;;11.88;5.22;;;;;;;;;;5031064;28;20067;-73
2023/05/23 01:38:37;;;;;;;8.52;5.20;;;;;;;;;;5049566;28;20083;-73
2023/05/23 01:41:03;;;;;;;10.55;5.80;;;;;;;;;;5031849;28;20021;-73
2023/05/23 01:43:29;;;;;;;10.95;5.40;;;;;;;;;;5031557;28;20358;-73
2023/05/23 01:45:56;;;;;;;11.48;5.72;;;;;;;;;;5031531;28;20048;-72
2023/05/23 01:48:25;;;;;;;8.20;5.75;;;;;;;;;;5031617;28;20052;-73
2023/05/23 01:50:51;;;;;;;9.02;5.28;;;;;;;;;;5047498;28;20031;-73
2023/05/23 01:53:19;;;;;;;11.65;5.45;;;;;;;;;;5051761;28;20481;-72
2023/05/23 01:55:45;;;;;;;8.52;6.00;;;;;;;;;;5051019;28;20116;-74
2023/05/23 01:58:11;;;;;;;6.50;4.90;;;;;;;;;;5068854;28;20052;-73
2023/05/23 02:00:37;;;;;;;9.45;5.90;;;;;;;;;;5054673;28;20024;-72
2023/05/23 02:03:03;;;;;;;9.00;6.07;;;;;;;;;;5064426;28;20036;-73
2023/05/23 02:05:29;;;;;;;8.13;5.68;;;;;;;;;;5069414;28;20130;-73
2023/05/23 02:07:54;;;;;;;15.85;7.32;;;;;;;;;;5069326;28;20480;-73
2023/05/23 02:10:20;;;;;;;6.47;5.15;;;;;;;;;;5050849;28;20058;-73
2023/05/23 02:12:45;;;;;;;12.60;6.00;;;;;;;;;;5069114;28;20020;-73
2023/05/23 02:15:11;;;;;;;12.35;5.47;;;;;;;;;;5068706;28;20361;-73
2023/05/23 02:17:37;;;;;;;10.45;5.75;;;;;;;;;;5050704;28;20020;-74
2023/05/23 02:20:05;;;;;;;10.70;5.40;;;;;;;;;;5054494;28;20518;-73
2023/05/23 02:22:30;;;;;;;14.10;6.78;;;;;;;;;;5054547;28;20127;-73
2023/05/23 02:24:56;;;;;;;9.45;5.45;;;;;;;;;;5073066;28;20111;-73
2023/05/23 02:27:22;;;;;;;10.50;5.93;;;;;;;;;;5072783;28;20025;-73
2023/05/23 02:29:47;;;;;;;10.57;5.65;;;;;;;;;;5074008;28;20032;-73
2023/05/23 02:32:13;;;;;;;9.23;5.60;;;;;;;;;;5055085;28;20028;-73
2023/05/23 02:34:39;;;;;;;8.57;5.40;;;;;;;;;;5055335;28;20478;-73
2023/05/23 02:37:04;;;;;;;9.43;5.50;;;;;;;;;;5055388;28;20025;-73
2023/05/23 02:39:30;;;;;;;10.93;5.10;;;;;;;;;;5055083;28;20024;-73
2023/05/23 02:41:55;;;;;;;13.20;5.47;;;;;;;;;;5073197;28;20512;-74
2023/05/23 02:44:21;;;;;;;8.80;5.22;;;;;;;;;;5054453;28;20032;-73
2023/05/23 02:46:46;;;;;;;11.30;5.82;;;;;;;;;;5054665;28;20068;-74
2023/05/23 02:49:12;;;;;;;7.97;5.20;;;;;;;;;;5054503;28;20021;-72
2023/05/23 02:51:37;;;;;;;9.70;5.18;;;;;;;;;;5073099;28;20476;-74
2023/05/23 02:54:03;;;;;;;9.90;6.22;;;;;;;;;;5072714;28;20052;-74
2023/05/23 02:56:29;;;;;;;10.13;5.40;;;;;;;;;;5072508;28;20742;-74
2023/05/23 02:58:55;;;;;;;10.20;4.90;;;;;;;;;;5054297;28;20128;-73
2023/05/23 03:01:20;;;;;;;9.60;5.65;;;;;;;;;;5054263;28;20111;-74
2023/05/23 03:03:46;;;;;;;11.00;5.30;;;;;;;;;;5054170;28;20025;-74
2023/05/23 03:06:13;;;;;;;11.73;5.35;;;;;;;;;;5071793;28;20029;-74
2023/05/23 03:08:43;;;;;;;8.98;6.15;;;;;;;;;;5072213;28;20314;-73
2023/05/23 03:11:08;;;;;;;9.35;5.43;;;;;;;;;;5072004;28;20031;-73
2023/05/23 03:13:35;;;;;;;12.82;6.03;;;;;;;;;;5071910;28;20033;-73
2023/05/23 03:16:00;;;;;;;10.40;5.70;;;;;;;;;;5072110;28;20104;-74
2023/05/23 03:18:26;;;;;;;7.63;5.15;;;;;;;;;;5053565;28;20473;-73
2023/05/23 03:20:52;;;;;;;9.60;5.72;;;;;;;;;;5072265;28;20936;-74
2023/05/23 03:23:17;;;;;;;8.63;5.25;;;;;;;;;;5054117;28;20032;-72
2023/05/23 03:25:43;;;;;;;11.05;6.13;;;;;;;;;;5073040;28;20040;-72
2023/05/23 03:28:11;;;;;;;11.57;5.63;;;;;;;;;;5054403;28;20020;-73
2023/05/23 03:30:36;;;;;;;12.43;6.03;;;;;;;;;;5070357;28;20473;-73
2023/05/23 03:33:02;;;;;;;9.85;4.97;;;;;;;;;;5053493;28;20036;-73
2023/05/23 03:35:27;;;;;;;11.98;6.10;;;;;;;;;;5071870;28;20021;-73
2023/05/23 03:37:53;;;;;;;8.02;5.53;;;;;;;;;;5072177;28;20021;-73
2023/05/23 03:40:18;;;;;;;14.35;5.90;;;;;;;;;;5071837;28;20084;-74
2023/05/23 03:42:47;;;;;;;25.17;6.57;;;;;;;;;;5053521;28;20113;-73
2023/05/23 03:45:12;;;;;;;14.88;6.65;;;;;;;;;;5053408;28;20142;-73
2023/05/23 03:47:38;;;;;;;11.27;6.35;;;;;;;;;;5053051;28;20669;-73
2023/05/23 03:50:04;;;;;;;11.48;5.53;;;;;;;;;;5053067;28;20740;-73
2023/05/23 03:52:30;;;;;;;7.95;5.32;;;;;;;;;;5071019;28;20032;-74
2023/05/23 03:54:55;;;;;;;11.38;5.22;;;;;;;;;;5053181;28;20035;-74
2023/05/23 03:57:21;;;;;;;11.70;6.25;;;;;;;;;;5071076;28;20496;-73
2023/05/23 03:59:47;;;;;;;9.57;5.85;;;;;;;;;;5071793;28;20435;-74
2023/05/23 04:02:13;;;;;;;11.02;5.53;;;;;;;;;;5072305;28;20024;-73
2023/05/23 04:04:40;;;;;;;17.90;6.80;;;;;;;;;;5071930;28;20059;-74
2023/05/23 04:07:08;;;;;;;13.13;5.70;;;;;;;;;;5071266;28;20060;-73
2023/05/23 04:09:33;;;;;;;11.93;5.45;;;;;;;;;;5070623;28;20441;-75
2023/05/23 04:11:59;;;;;;;7.80;5.35;;;;;;;;;;5071013;28;20020;-73
2023/05/23 04:14:24;;;;;;;8.60;5.72;;;;;;;;;;5052435;28;20440;-75
2023/05/23 04:16:50;;;;;;;12.70;6.03;;;;;;;;;;5070517;28;20021;-73
2023/05/23 04:19:15;;;;;;;17.42;6.45;;;;;;;;;;5051834;28;20028;-74
2023/05/23 04:21:41;;;;;;;8.20;5.00;;;;;;;;;;5070696;28;20447;-75
2023/05/23 04:24:07;;;;;;;10.75;5.95;;;;;;;;;;5070664;28;20032;-75
2023/05/23 04:26:32;;;;;;;11.88;5.65;;;;;;;;;;5070749;28;20123;-74
2023/05/23 04:28:58;;;;;;;11.88;6.00;;;;;;;;;;5052766;28;20020;-74
2023/05/23 04:31:24;;;;;;;11.68;5.88;;;;;;;;;;5070458;28;20016;-74
2023/05/23 04:33:49;;;;;;;11.43;6.05;;;;;;;;;;5052259;28;20028;-73
2023/05/23 04:36:15;;;;;;;13.60;5.95;;;;;;;;;;5052653;28;20035;-74
2023/05/23 04:38:40;;;;;;;11.60;5.38;;;;;;;;;;5070178;28;20017;-74
2023/05/23 04:41:12;;;;;;;10.90;5.88;;;;;;;;;;5070040;28;20032;-75
2023/05/23 04:43:41;;;;;;;12.55;6.28;;;;;;;;;;5070546;28;20055;-74
2023/05/23 04:46:08;;;;;;;11.15;5.80;;;;;;;;;;5052555;28;20037;-74
2023/05/23 04:48:36;;;;;;;10.27;5.88;;;;;;;;;;5070364;28;20599;-74
2023/05/23 04:51:08;;;;;;;11.25;6.05;;;;;;;;;;5052270;28;20201;-74
2023/05/23 04:53:35;;;;;;;11.90;5.25;;;;;;;;;;5052056;28;20025;-75
2023/05/23 04:56:01;;;;;;;12.68;5.78;;;;;;;;;;5070128;28;20028;-75
2023/05/23 04:58:27;;;;;;;13.50;6.95;;;;;;;;;;5051882;28;20426;-75
2023/05/23 05:00:52;;;;;;;12.10;5.68;;;;;;;;;;5070240;28;20039;-75
2023/05/23 05:03:17;;;;;;;10.77;5.13;;;;;;;;;;5051406;28;20442;-73
2023/05/23 05:05:43;;;;;;;12.57;5.63;;;;;;;;;;5051883;28;20617;-74
2023/05/23 05:08:08;;;;;;;10.88;6.78;;;;;;;;;;5052013;28;20052;-74
2023/05/23 05:10:34;;;;;;;15.40;7.18;;;;;;;;;;5070744;28;20034;-74
2023/05/23 05:13:00;;;;;;;19.40;6.22;;;;;;;;;;5052776;28;20056;-74
2023/05/23 05:15:25;;;;;;;14.43;6.28;;;;;;;;;;5052760;28;20105;-75
2023/05/23 05:17:50;;;;;;;11.35;5.18;;;;;;;;;;5070442;28;20124;-73
2023/05/23 05:20:16;;;;;;;14.82;5.65;;;;;;;;;;5051535;28;20027;-74
2023/05/23 05:22:42;;;;;;;18.23;6.07;;;;;;;;;;5052666;28;20358;-74
2023/05/23 05:25:09;;;;;;;20.45;6.50;;;;;;;;;;5027544;28;20029;-75
2023/05/23 05:27:36;;;;;;;12.32;5.88;;;;;;;;;;5033878;28;20025;-73
2023/05/23 05:30:05;;;;;;;14.30;6.20;;;;;;;;;;5035926;28;20047;-73
2023/05/23 05:32:32;;;;;;;12.32;6.20;;;;;;;;;;5069477;28;20020;-74
2023/05/23 05:34:59;;;;;;;18.08;6.60;;;;;;;;;;5038880;28;20111;-75
2023/05/23 05:37:24;;;;;;;14.43;6.90;;;;;;;;;;5052838;28;20087;-75
2023/05/23 05:39:50;;;;;;;10.38;7.00;;;;;;;;;;5034941;28;20037;-76
2023/05/23 05:42:16;;;;;;;10.60;6.75;;;;;;;;;;5058393;28;20029;-76
2023/05/23 05:44:42;;;;;;;12.43;6.90;;;;;;;;;;5044787;28;20029;-74
2023/05/23 05:47:07;;;;;;;12.45;6.95;;;;;;;;;;5075907;28;20029;-75
2023/05/23 05:49:33;;;;;;;12.75;6.20;;;;;;;;;;5065639;28;20397;-74
2023/05/23 05:51:58;;;;;;;10.50;6.93;;;;;;;;;;5070587;28;20055;-74
2023/05/23 05:54:24;;;;;;;13.73;6.75;;;;;;;;;;5043105;28;20101;-73
2023/05/23 05:56:49;;;;;;;12.32;6.35;;;;;;;;;;5052809;28;20053;-73
2023/05/23 05:59:15;;;;;;;13.30;7.05;;;;;;;;;;5040820;28;20033;-74
2023/05/23 06:01:41;;;;;;;12.27;6.78;;;;;;;;;;5035884;28;20507;-74
2023/05/23 06:04:06;;;;;;;12.18;6.75;;;;;;;;;;5029185;28;20043;-75
2023/05/23 06:06:32;;;;;;;19.67;7.15;;;;;;;;;;5051475;28;20162;-75
2023/05/23 06:08:59;;;;;;;10.10;6.53;;;;;;;;;;5054770;28;20074;-72
2023/05/23 06:11:25;;;;;;;17.50;7.25;;;;;;;;;;5061388;28;20025;-73
2023/05/23 06:13:51;;;;;;;13.80;6.85;;;;;;;;;;5049552;28;20029;-75
2023/05/23 06:16:17;;;;;;;9.90;6.63;;;;;;;;;;5039229;28;20103;-77
2023/05/23 06:18:43;;;;;;;17.10;6.88;;;;;;;;;;5050053;28;20081;-73
2023/05/23 06:21:10;;;;;;;12.40;6.22;;;;;;;;;;5032741;28;20051;-75
2023/05/23 06:23:35;;;;;;;11.73;6.57;;;;;;;;;;5044304;28;20465;-74
2023/05/23 06:26:01;;;;;;;16.95;6.43;;;;;;;;;;5062161;28;20134;-72
2023/05/23 06:28:26;;;;;;;14.38;6.28;;;;;;;;;;5053024;28;20098;-72
2023/05/23 06:30:52;;;;;;;16.98;6.13;;;;;;;;;;5047862;28;20654;-75
2023/05/23 06:33:19;;;;;;;13.73;7.28;;;;;;;;;;5033137;28;20170;-74
2023/05/23 06:35:45;;;;;;;12.07;6.32;;;;;;;;;;5038892;28;20037;-76
2023/05/23 06:38:10;;;;;;;15.30;6.53;;;;;;;;;;5044463;28;20039;-75
2023/05/23 06:40:36;;;;;;;13.52;7.57;;;;;;;;;;5051764;28;20029;-74
2023/05/23 06:43:01;;;;;;;12.35;6.65;;;;;;;;;;5048621;28;20025;-74
2023/05/23 06:45:27;;;;;;;14.25;7.20;;;;;;;;;;5042115;28;20036;-74
2023/05/23 06:47:52;;;;;;;9.75;6.10;;;;;;;;;;5031860;28;20094;-76
2023/05/23 06:50:19;;;;;;;15.23;7.13;;;;;;;;;;5045541;28;20037;-74
2023/05/23 06:52:45;;;;;;;11.63;7.28;;;;;;;;;;5035796;28;20700;-75
2023/05/23 06:55:16;;;;;;;19.15;6.85;;;;;;;;;;5029115;28;20029;-74
2023/05/23 06:57:43;;;;;;;16.30;7.03;;;;;;;;;;5052623;28;20049;-73
2023/05/23 07:00:10;;;;;;;15.20;6.97;;;;;;;;;;5062249;28;20033;-75
2023/05/23 07:02:36;;;;;;;24.27;8.07;;;;;;;;;;5036273;28;20029;-73
2023/05/23 07:05:07;;;;;;;16.67;8.23;;;;;;;;;;5014335;28;20507;-75
2023/05/23 07:07:34;;;;;;;14.68;7.13;;;;;;;;;;5051694;28;20044;-74
2023/05/23 07:09:59;;;;;;;11.85;6.85;;;;;;;;;;5029095;28;20033;-74
2023/05/23 07:12:49;;;;;;;15.48;7.00;;;;;;;;;;5021339;28;20036;-73
2023/05/23 07:15:16;;;;;;;13.63;7.13;;;;;;;;;;5045660;28;20457;-73
2023/05/23 07:17:41;;;;;;;15.52;7.07;;;;;;;;;;5044055;28;20037;-74
2023/05/23 07:20:07;;;;;;;15.15;7.63;;;;;;;;;;5025148;28;20093;-74
2023/05/23 07:22:33;;;;;;;11.82;6.97;;;;;;;;;;5054858;28;20092;-73
2023/05/23 07:24:58;;;;;;;13.80;6.10;;;;;;;;;;5039212;28;20032;-72
2023/05/23 07:27:25;;;;;;;14.95;7.40;;;;;;;;;;5059573;28;20025;-75
2023/05/23 07:29:51;;;;;;;17.33;8.00;;;;;;;;;;5022245;28;20036;-74
2023/05/23 07:32:18;;;;;;;16.00;6.78;;;;;;;;;;5056737;28;20040;-73
2023/05/23 07:34:45;;;;;;;14.07;6.50;;;;;;;;;;5031509;28;20036;-75
2023/05/23 07:37:11;;;;;;;19.38;7.57;;;;;;;;;;5033022;28;20434;-74
2023/05/23 07:39:36;;;;;;;10.60;5.90;;;;;;;;;;5021811;28;20029;-74
2023/05/23 07:42:02;;;;;;;11.63;5.60;;;;;;;;;;5049247;28;20077;-73
2023/05/23 07:44:28;;;;;;;17.08;6.53;;;;;;;;;;5034699;28;20072;-75
2023/05/23 07:46:53;;;;;;;10.27;6.40;;;;;;;;;;5049660;28;20033;-75
2023/05/23 07:49:19;;;;;;;12.63;6.05;;;;;;;;;;5031085;28;20074;-74
2023/05/23 07:51:45;;;;;;;13.00;6.20;;;;;;;;;;5027816;28;20025;-73
2023/05/23 07:54:11;;;;;;;10.60;6.43;;;;;;;;;;5045106;28;20090;-75
2023/05/23 07:56:37;;;;;;;11.25;6.40;;;;;;;;;;5022648;28;20045;-75
2023/05/23 07:59:03;;;;;;;10.10;5.80;;;;;;;;;;5026971;28;20150;-73
2023/05/23 08:01:29;;;;;;;16.20;5.85;;;;;;;;;;5044951;28;20469;-74
2023/05/23 08:03:56;;;;;;;13.27;6.28;;;;;;;;;;5044645;28;20032;-75
2023/05/23 08:06:21;;;;;;;12.32;6.55;;;;;;;;;;5033741;28;20432;-75
2023/05/23 08:08:47;;;;;;;11.73;7.63;;;;;;;;;;5056969;28;20040;-73
2023/05/23 08:11:13;;;;;;;10.73;6.13;;;;;;;;;;5046101;28;20548;-74
2023/05/23 08:13:39;;;;;;;15.75;6.70;;;;;;;;;;5022439;28;20033;-75
2023/05/23 08:16:05;;;;;;;15.07;6.55;;;;;;;;;;5042653;28;20130;-74
2023/05/23 08:18:30;;;;;;;11.77;6.88;;;;;;;;;;5023146;28;20132;-73
2023/05/23 08:20:56;;;;;;;13.10;6.35;;;;;;;;;;5022934;28;20154;-72
2023/05/23 08:23:22;;;;;;;10.00;6.80;;;;;;;;;;5030897;28;20125;-73
2023/05/23 08:25:48;;;;;;;11.05;5.72;;;;;;;;;;5030482;28;20029;-73
2023/05/23 08:28:14;;;;;;;11.45;6.38;;;;;;;;;;5023350;28;20028;-74
2023/05/23 08:30:41;;;;;;;8.77;5.45;;;;;;;;;;5025163;28;20025;-75
2023/05/23 08:33:06;;;;;;;13.93;5.82;;;;;;;;;;5023731;28;20029;-73
2023/05/23 08:35:34;;;;;;;14.20;6.53;;;;;;;;;;5046672;28;20445;-73
2023/05/23 08:38:00;;;;;;;13.02;6.78;;;;;;;;;;5056030;28;20051;-74
2023/05/23 08:40:29;;;;;;;12.25;6.20;;;;;;;;;;5039793;28;20041;-74
2023/05/23 08:43:09;;;;;;;14.40;5.78;;;;;;;;;;5026175;28;20481;-75
2023/05/23 08:45:34;;;;;;;15.93;6.90;;;;;;;;;;5031516;28;20097;-73
2023/05/23 08:48:03;;;;;;;11.05;5.05;;;;;;;;;;5052593;28;20017;-74
2023/05/23 08:50:29;;;;;;;10.13;6.20;;;;;;;;;;5009989;28;20036;-76
2023/05/23 08:52:57;;;;;;;16.58;6.53;;;;;;;;;;5029375;28;20488;-74
2023/05/23 08:55:26;;;;;;;8.32;5.47;;;;;;;;;;5036690;28;20036;-73
2023/05/23 08:57:52;;;;;;;11.23;5.22;;;;;;;;;;5036534;28;20106;-72
2023/05/23 09:00:21;;;;;;;10.13;5.28;;;;;;;;;;5004908;28;20121;-73
2023/05/23 09:02:47;;;;;;;9.55;5.25;;;;;;;;;;5022503;28;20071;-75
2023/05/23 09:05:13;;;;;;;9.43;5.20;;;;;;;;;;5047816;28;20824;-75
2023/05/23 09:07:46;;;;;;;11.52;6.57;;;;;;;;;;5049146;28;20044;-72
2023/05/23 09:10:13;;;;;;;14.68;6.85;;;;;;;;;;5039714;28;21303;-74
2023/05/23 09:12:42;;;;;;;11.52;6.07;;;;;;;;;;5027735;28;20041;-74
2023/05/23 09:15:10;;;;;;;19.77;7.00;;;;;;;;;;5022061;28;20536;-74
2023/05/23 09:17:39;;;;;;;14.20;7.47;;;;;;;;;;5045736;28;20045;-75
2023/05/23 09:20:16;;;;;;;11.82;7.28;;;;;;;;;;5012660;28;20044;-75
2023/05/23 09:22:49;;;;;;;28.45;18.13;;;;;;;;;;5022709;28;20033;-75
2023/05/23 09:25:15;;;;;;;10.00;6.68;;;;;;;;;;5020009;28;20218;-75
2023/05/23 09:27:41;;;;;;;8.63;6.47;;;;;;;;;;5000132;28;20093;-74
2023/05/23 09:30:10;;;;;;;10.57;6.70;;;;;;;;;;5040146;28;20537;-75
2023/05/23 09:32:36;;;;;;;11.68;7.95;;;;;;;;;;5024225;28;20060;-76
2023/05/23 09:35:03;;;;;;;11.85;7.65;;;;;;;;;;5031020;28;20287;-74
2023/05/23 09:37:39;;;;;;;12.82;7.30;;;;;;;;;;5023709;28;20028;-75
2023/05/23 09:40:11;;;;;;;12.98;7.63;;;;;;;;;;5020623;28;20492;-75
2023/05/23 09:42:44;;;;;;;11.60;7.65;;;;;;;;;;5021490;28;20044;-75
2023/05/23 09:45:14;;;;;;;11.93;7.55;;;;;;;;;;5043177;28;20217;-74
2023/05/23 09:47:49;;;;;;;13.00;7.57;;;;;;;;;;5011643;28;20038;-74
2023/05/23 09:50:16;;;;;;;11.82;8.48;;;;;;;;;;5020106;28;20338;-75
2023/05/23 09:52:42;;;;;;;12.43;8.18;;;;;;;;;;5019152;28;20285;-73
2023/05/23 09:55:08;;;;;;;12.45;7.90;;;;;;;;;;5021344;28;20514;-73
2023/05/23 09:57:44;;;;;;;20.08;10.23;;;;;;;;;;5020752;28;20075;-75
2023/05/23 10:00:12;;;;;;;12.68;8.35;;;;;;;;;;5047410;28;20064;-77
2023/05/23 10:03:00;;;;;;;14.77;9.65;;;;;;;;;;5054437;28;20028;-75
2023/05/23 10:05:48;;;;;;;15.32;10.23;;;;;;;;;;5039635;28;20051;-74
2023/05/23 10:08:33;;;;;;;18.83;12.85;;;;;;;;;;5042685;28;20025;-74
2023/05/23 10:11:13;;;;;;;16.13;10.57;;;;;;;;;;5044327;28;20634;-74
2023/05/23 10:13:42;;;;;;;19.48;10.95;;;;;;;;;;5018887;28;20136;-74
2023/05/23 10:16:20;;;;;;;17.77;9.68;;;;;;;;;;5047080;28;20024;-74
2023/05/23 10:18:55;;;;;;;14.68;10.20;;;;;;;;;;5020585;28;20031;-74
2023/05/23 10:21:34;;;;;;;17.67;11.05;;;;;;;;;;5012301;28;20432;-77
2023/05/23 10:24:06;;;;;;;53.13;14.00;;;;;;;;;;5014185;28;20035;-74
2023/05/23 10:26:31;;;;;;;;;;;;;;;;;;5018829;28;20044;-74
2023/05/23 10:28:57;;;;;;;29.13;13.50;;;;;;;;;;5033143;28;20296;-74
2023/05/23 10:31:23;;;;;;;25.65;12.68;;;;;;;;;;5037686;28;20075;-73
2023/05/23 10:33:58;;;;;;;22.35;12.52;;;;;;;;;;5059933;28;20033;-74
2023/05/23 10:36:35;;;;;;;18.70;11.38;;;;;;;;;;5030602;28;20043;-75
2023/05/23 10:39:08;;;;;;;19.20;11.05;;;;;;;;;;5024420;28;20025;-74
2023/05/23 10:41:57;;;;;;;21.92;11.32;;;;;;;;;;5052081;28;20523;-75
2023/05/23 10:44:27;;;;;;;15.13;11.68;;;;;;;;;;5040551;28;20025;-74
2023/05/23 10:47:02;;;;;;;23.77;13.20;;;;;;;;;;5022381;28;20433;-74
2023/05/23 10:49:41;;;;;;;18.58;11.80;;;;;;;;;;5023283;28;20021;-75
2023/05/23 10:52:09;;;;;;;18.08;11.90;;;;;;;;;;5047588;28;20028;-75
2023/05/23 10:54:46;;;;;;;20.75;12.55;;;;;;;;;;5037036;28;20020;-76
2023/05/23 10:57:15;;;;;;;18.40;12.27;;;;;;;;;;5051928;28;20472;-73
2023/05/23 10:59:41;;;;;;;23.00;14.02;;;;;;;;;;5045627;28;20044;-75
2023/05/23 11:02:15;;;;;;;29.50;15.30;;;;;;;;;;5025304;28;20596;-75
2023/05/23 11:04:41;;;;;;;18.98;13.05;;;;;;;;;;5021244;28;20040;-74
2023/05/23 11:07:43;;;;;;;17.02;12.93;;;;;;;;;;5024456;28;20068;-75
2023/05/23 11:10:10;;;;;;;17.25;12.23;;;;;;;;;;4985525;28;20509;-73
2023/05/23 11:12:44;;;;;;;17.95;12.38;;;;;;;;;;4987185;28;20042;-74
2023/05/23 11:15:16;;;;;;;18.80;12.25;;;;;;;;;;4967309;28;20030;-74
2023/05/23 11:17:50;;;;;;;22.05;12.90;;;;;;;;;;4998983;28;20109;-74
2023/05/23 11:20:22;;;;;;;17.02;12.38;;;;;;;;;;5020372;28;20028;-74
2023/05/23 11:23:04;;;;;;;19.15;13.40;;;;;;;;;;5045873;28;20033;-74
2023/05/23 11:25:43;;;;;;;24.05;15.07;;;;;;;;;;5027035;28;20036;-73
2023/05/23 11:28:12;;;;;;;20.10;14.50;;;;;;;;;;5021214;28;20036;-73
2023/05/23 11:30:38;;;;;;;26.35;16.48;;;;;;;;;;5027421;28;20017;-74
2023/05/23 11:33:15;;;;;;;20.92;13.98;;;;;;;;;;5022954;28;20045;-74
2023/05/23 11:35:48;;;;;;;18.52;14.38;;;;;;;;;;5026597;28;20036;-74
2023/05/23 11:38:17;;;;;;;22.48;14.40;;;;;;;;;;5031855;28;20033;-76
2023/05/23 11:40:45;;;;;;;19.63;14.27;;;;;;;;;;5026581;28;20059;-76
2023/05/23 11:43:16;;;;;;;22.30;17.52;;;;;;;;;;5036056;28;20140;-75
2023/05/23 11:45:42;;;;;;;;;;;;;;;;;;5028484;28;20430;-74
2023/05/23 11:48:12;;;;;;;20.27;14.52;;;;;;;;;;5027659;28;19923;-75
2023/05/23 11:50:52;;;;;;;20.98;15.38;;;;;;;;;;5046347;28;20131;-74
2023/05/23 11:53:19;;;;;;;17.80;14.43;;;;;;;;;;5025783;28;20064;-74
2023/05/23 11:55:51;;;;;;;23.45;15.88;;;;;;;;;;5011502;28;20115;-75
2023/05/23 11:58:18;;;;;;;18.85;14.52;;;;;;;;;;5038777;28;20044;-76
2023/05/23 12:00:44;;;;;;;18.33;13.82;;;;;;;;;;5024227;28;20032;-75
2023/05/23 12:03:10;;;;;;;24.02;15.18;;;;;;;;;;5044951;28;20071;-75
2023/05/23 12:05:36;;;;;;;29.80;15.30;;;;;;;;;;5047171;28;20060;-76
2023/05/23 12:08:02;;;;;;;20.70;14.43;;;;;;;;;;5047836;28;20135;-75
2023/05/23 12:10:28;;;;;;;22.58;14.00;;;;;;;;;;5024788;28;20036;-75
2023/05/23 12:12:54;;;;;;;25.58;14.23;;;;;;;;;;5033513;28;20028;-74
2023/05/23 12:15:26;;;;;;;21.00;14.00;;;;;;;;;;5043587;28;20143;-74
2023/05/23 12:17:53;;;;;;;17.25;13.98;;;;;;;;;;5027511;28;20028;-74
2023/05/23 12:20:20;;;;;;;25.25;16.38;;;;;;;;;;5009259;28;20489;-74
2023/05/23 12:22:45;;;;;;;17.48;14.05;;;;;;;;;;5049187;28;20121;-74
2023/05/23 12:25:11;;;;;;;15.60;12.63;;;;;;;;;;5028226;28;20527;-75
2023/05/23 12:27:42;;;;;;;15.73;12.00;;;;;;;;;;5044632;28;20033;-74
2023/05/23 12:30:15;;;;;;;17.42;12.55;;;;;;;;;;5026571;28;20051;-74
2023/05/23 12:32:43;;;;;;;16.80;13.13;;;;;;;;;;5023836;28;20032;-75
2023/05/23 12:35:13;;;;;;;19.73;13.02;;;;;;;;;;5025097;28;20484;-72
2023/05/23 12:37:44;;;;;;;22.57;13.57;;;;;;;;;;5024972;28;20025;-71
2023/05/23 12:40:15;;;;;;;25.65;14.15;;;;;;;;;;5024695;28;20029;-74
2023/05/23 12:42:58;;;;;;;15.70;12.80;;;;;;;;;;5051336;28;20063;-75
2023/05/23 12:45:32;;;;;;;21.92;13.75;;;;;;;;;;5029543;28;20047;-74
2023/05/23 12:47:58;;;;;;;21.13;13.05;;;;;;;;;;5043238;28;20134;-74
2023/05/23 12:50:24;;;;;;;17.58;12.30;;;;;;;;;;5035577;28;20404;-72
2023/05/23 12:52:51;;;;;;;25.92;15.88;;;;;;;;;;5041372;28;20124;-75
2023/05/23 12:55:17;;;;;;;18.77;13.48;;;;;;;;;;5043947;28;20124;-74
2023/05/23 12:57:43;;;;;;;16.85;13.00;;;;;;;;;;5024231;28;20124;-75
2023/05/23 13:00:10;;;;;;;17.55;12.10;;;;;;;;;;5037790;28;20119;-74
2023/05/23 13:02:36;;;;;;;16.05;12.68;;;;;;;;;;5051052;28;20035;-73
2023/05/23 13:05:03;;;;;;;14.25;12.57;;;;;;;;;;5030339;28;20121;-73
2023/05/23 13:07:28;;;;;;;16.15;13.27;;;;;;;;;;5045080;28;20111;-74
2023/05/23 13:09:54;;;;;;;23.25;12.90;;;;;;;;;;5035772;28;20592;-74
2023/05/23 13:12:19;;;;;;;16.70;12.93;;;;;;;;;;5049923;28;20044;-74
2023/05/23 13:14:45;;;;;;;16.88;11.63;;;;;;;;;;5022761;28;20734;-74
2023/05/23 13:17:12;;;;;;;14.95;10.63;;;;;;;;;;5039995;28;20504;-75
2023/05/23 13:19:38;;;;;;;12.32;9.30;;;;;;;;;;5047067;28;20033;-74
2023/05/23 13:22:05;;;;;;;16.60;9.60;;;;;;;;;;5019207;28;20124;-73
2023/05/23 13:24:33;;;;;;;12.07;9.00;;;;;;;;;;5043282;28;20045;-75
2023/05/23 13:26:58;;;;;;;14.32;9.48;;;;;;;;;;5018065;28;20075;-74
2023/05/23 13:29:24;;;;;;;10.05;8.50;;;;;;;;;;5043508;28;20445;-74
2023/05/23 13:31:50;;;;;;;10.43;8.60;;;;;;;;;;5039857;28;20035;-75
2023/05/23 13:34:18;;;;;;;11.27;8.73;;;;;;;;;;5031091;28;20036;-75
2023/05/23 13:36:44;;;;;;;9.85;8.30;;;;;;;;;;5043789;28;20032;-75
2023/05/23 13:39:10;;;;;;;10.90;7.97;;;;;;;;;;5040768;28;20023;-74
2023/05/23 13:41:35;;;;;;;12.30;8.25;;;;;;;;;;5026740;28;20071;-75
2023/05/23 13:44:01;;;;;;;9.35;6.80;;;;;;;;;;5043083;28;20025;-74
2023/05/23 13:46:26;;;;;;;13.15;8.27;;;;;;;;;;5026728;28;20039;-75
2023/05/23 13:48:52;;;;;;;9.18;8.00;;;;;;;;;;5020406;28;20104;-74
2023/05/23 13:51:17;;;;;;;11.25;8.10;;;;;;;;;;5020219;28;20033;-75
2023/05/23 13:53:43;;;;;;;11.90;7.30;;;;;;;;;;5029761;28;20032;-74
2023/05/23 13:56:09;;;;;;;8.13;6.57;;;;;;;;;;5045344;28;20040;-74
2023/05/23 13:58:35;;;;;;;8.23;7.28;;;;;;;;;;5028196;28;20138;-74
2023/05/23 14:01:01;;;;;;;9.07;7.32;;;;;;;;;;5024472;28;20033;-75
2023/05/23 14:03:26;;;;;;;9.82;7.70;;;;;;;;;;5046136;28;20032;-75
2023/05/23 14:05:52;;;;;;;13.00;8.10;;;;;;;;;;5045350;28;20460;-75
2023/05/23 14:08:18;;;;;;;14.43;8.32;;;;;;;;;;5023847;28;20544;-74
2023/05/23 14:10:43;;;;;;;10.82;7.72;;;;;;;;;;5020321;28;20084;-75
2023/05/23 14:13:09;;;;;;;10.18;7.60;;;;;;;;;;5001182;28;20349;-75
2023/05/23 14:15:37;;;;;;;10.05;8.20;;;;;;;;;;5040129;28;20049;-75
2023/05/23 14:18:03;;;;;;;24.10;9.68;;;;;;;;;;5045804;28;20234;-75
2023/05/23 14:20:28;;;;;;;10.80;8.75;;;;;;;;;;5029757;28;20456;-75
2023/05/23 14:22:54;;;;;;;14.57;9.38;;;;;;;;;;5043618;28;20060;-74
2023/05/23 14:25:20;;;;;;;10.77;8.95;;;;;;;;;;5034762;28;20028;-74
2023/05/23 14:27:46;;;;;;;11.02;9.60;;;;;;;;;;5043892;28;20021;-75
2023/05/23 14:30:12;;;;;;;24.08;11.10;;;;;;;;;;5060673;28;20048;-76
2023/05/23 14:32:38;;;;;;;15.05;11.23;;;;;;;;;;5048455;28;20021;-74
2023/05/23 14:35:09;;;;;;;12.27;10.45;;;;;;;;;;5035543;28;20115;-74